Pagrindinis puslapis
METAR-TAF:

METAR-TAF

Oro uostai :

Neukenas, Argentina

platuma: 38-57S, ilguma: 068-08W, Aukštis: 270 m

Dabartinis oras

Ataskaita buvo paskelbta 16 minutes, ne 13:00 UTC
Vėjas 16 kt iš Vakarų su gūsio iki 27 kt
Temperatūra 13°C
Drėgmė 47%
Slėgis 1018 hPa
Matomumas 10 km arba daugiau
nėra debesų žemiau 1500 m ir nėra kamuolinių lietaus debesų

METAR: SAZN 241300Z 26016G27KT CAVOK 13/02 Q1018

Laikas: 10:16 (13:16 UTC)

Prognozė

Ataskaita buvo paskelbta 2 valandos ir 16 minutes, ne 11:00 UTC
Prognozė galioja nuo 24 metu 12 UTC su 25 metu 12 UTC
Vėjas 15 kt iš Vakarų su gūsio iki 30 kt
Matomumas 10 km arba daugiau
nėra debesų žemiau 1500 m ir nėra kamuolinių lietaus debesų
Tapsmas
nuo 24 metu 20 UTC su 24 metu 22 UTC
Vėjas 10 kt iš Vakarų/Pietvakarių

TAF: SAZN 241100Z 2412/2512 27015G30KT CAVOK TX17/2419Z TN06/2511Z BECMG 2420/2422 25010KT

Orai ataskaitas ir orų prognozės (METAR, TAF).

turimą stotys yra geltonos ir raudonos taškus žemėlapyje.

Perkelti pele per norėdami pamatyti stoties vardą.

Tada spustelėkite, norėdami matyti oro stebėjimo ir prognozės.

Norėdami pakeisti žemėlapį: spustelėkite ant žalios mygtukų su juodo kryžiaus žemyn,; žalią mygtuką su brūkšneliu, jei norite nutolinti; arba žalių rodyklių gretimoms žemėlapius.


METAR-TAF: